Airfield :
LOGIN :

Register | Disclaimer

   EN    FR    IT 

 










Legend :    VFR   Marginal VFR   IFR   Intensive IFR   Very Intensive IFR
Visi :
Ceiling :
>= 8 km
>= 3000ft
5 to 8 km
1000 to 3000 ft
1500m to 5 km
500 to 1000 ft
800 to 1500m
200 to 500 ft
< 800m
< 200 ft
Symbols :   Thunderstorms  Fog  Heavy snow  Heavy precipitations  Wind > 20 kt
SIGMETs :     Misc.  Thunderstorms  Icing  Turbulence  Mountain Waves  Volcanic Ashes






- Airport Elevation : 374 ft
- IATA code : LIS


LPPT - Lisboa Portela

CURRENT METAR :
  • 272100Z 23012KT 5000 BKN004 15/14 Q1024 RERA REDZ

EXPIRED METARs :
  • 272030Z 22011KT 2000 RADZ BKN004 14/14 Q1024
  • 272000Z 23013KT 9999 -RADZ BKN005 14/14 Q1024
  • 271930Z 22012KT 3000 DZRA FEW002 BKN004 14/14 Q1023
  • 271900Z 24010G20KT 210V270 9999 -RADZ FEW002 BKN005 15/14 Q1023

TAF TAF LPPT
Valid from the 27 at 18:00 until the 29 at 00:00 UTC


271700Z 2718/2824 27010KT 9999 FEW008 BKN015
TEMPO 2718/2815 3000 RADZ BR SCT003 BKN005
PROB40
TEMPO 2721/2811 2000 DZ BR BKN003
BECMG 2811/2813 21008KT FEW008 SCT012
BECMG 2821/2824 VRB02KT 5000 BR SCT005



MET'MAP, your aeronautical weather chart ! - Copyright ORBIFLY December 2007 - Disclaimer

ORBIFLY MET'MAP TEAM :

Programming & Development : Alexandra Zaïnal
Concept & original design : Baudouin d'Aumeries
Assistance for programming : Marc-Olivier Méhu
Technical & hardware support : Manuel Goepfert

Contact : metmap@orbifly.com




SOURCES & CREDITS :

   NOAA